createdAt,value
2019-02-28T00:00:43.018Z,22.04
2019-02-28T00:01:47.211Z,22.01
2019-02-28T00:02:49.213Z,22.02
2019-02-28T00:03:50.913Z,21.99
2019-02-28T00:04:52.754Z,22.00
2019-02-28T00:05:54.775Z,21.99
2019-02-28T00:06:56.502Z,21.98
2019-02-28T00:07:58.734Z,22.00
2019-02-28T00:09:01.651Z,21.97
2019-02-28T00:10:08.807Z,21.96
2019-02-28T00:11:10.803Z,21.96
2019-02-28T00:12:13.526Z,21.94
2019-02-28T00:13:21.453Z,21.93
2019-02-28T00:14:20.787Z,21.92
2019-02-28T00:15:22.835Z,21.94
2019-02-28T00:16:25.218Z,21.93
2019-02-28T00:17:27.084Z,21.92
2019-02-28T00:18:29.066Z,21.95
2019-02-28T00:19:31.169Z,21.96
2019-02-28T00:20:33.346Z,21.98
2019-02-28T00:21:37.405Z,21.97
2019-02-28T00:22:38.793Z,21.98
2019-02-28T00:23:40.661Z,22.00
2019-02-28T00:24:42.417Z,22.00
2019-02-28T00:25:45.434Z,22.03
2019-02-28T00:26:47.931Z,22.02
2019-02-28T00:27:52.641Z,22.02
2019-02-28T00:28:57.071Z,22.03
2019-02-28T00:29:58.860Z,22.04
2019-02-28T00:31:00.946Z,22.04
2019-02-28T00:32:03.657Z,22.06
2019-02-28T00:33:05.551Z,22.07
2019-02-28T00:34:07.466Z,22.07
2019-02-28T00:35:12.932Z,22.09
2019-02-28T00:36:13.229Z,22.11
2019-02-28T00:37:14.915Z,22.10
2019-02-28T00:38:16.988Z,22.12
2019-02-28T00:39:18.619Z,22.12
2019-02-28T00:40:20.264Z,22.12
2019-02-28T00:41:22.277Z,22.12
2019-02-28T00:42:24.104Z,22.14
2019-02-28T00:43:25.968Z,22.16
2019-02-28T00:44:31.285Z,22.17
2019-02-28T00:45:36.266Z,22.16
2019-02-28T00:46:35.886Z,22.18
2019-02-28T00:47:37.958Z,22.19
2019-02-28T00:48:40.002Z,22.19
2019-02-28T00:49:41.637Z,22.18
2019-02-28T00:50:43.686Z,22.19
2019-02-28T00:51:45.635Z,22.18
2019-02-28T00:52:47.546Z,22.21
2019-02-28T00:53:49.418Z,22.21
2019-02-28T00:54:51.059Z,22.21
2019-02-28T00:55:53.010Z,22.21
2019-02-28T00:56:54.854Z,22.23
2019-02-28T00:57:58.977Z,22.22
2019-02-28T00:59:02.219Z,22.22
2019-02-28T01:00:09.998Z,22.23
2019-02-28T01:01:12.629Z,22.23
2019-02-28T01:02:17.628Z,22.22
2019-02-28T01:03:18.397Z,22.21
2019-02-28T01:04:20.387Z,22.23
2019-02-28T01:05:22.441Z,22.23
2019-02-28T01:06:26.909Z,22.22
2019-02-28T01:07:28.753Z,22.22
2019-02-28T01:08:31.591Z,22.23
2019-02-28T01:09:33.592Z,22.22
2019-02-28T01:10:39.298Z,22.20
2019-02-28T01:11:39.310Z,22.19
2019-02-28T01:12:41.403Z,22.23
2019-02-28T01:13:43.396Z,22.21
2019-02-28T01:14:45.275Z,22.23
2019-02-28T01:15:47.458Z,22.19
2019-02-28T01:16:50.171Z,22.18
2019-02-28T01:17:53.305Z,22.18
2019-02-28T01:18:54.988Z,22.20
2019-02-28T01:19:56.985Z,22.19
2019-02-28T01:20:58.860Z,22.19
2019-02-28T01:22:01.628Z,22.20
2019-02-28T01:23:03.680Z,22.18
2019-02-28T01:24:05.490Z,22.19
2019-02-28T01:25:15.624Z,22.20
2019-02-28T01:26:17.512Z,22.20
2019-02-28T01:27:21.014Z,22.20
2019-02-28T01:28:26.854Z,22.21
2019-02-28T01:29:27.213Z,22.22
2019-02-28T01:30:29.804Z,22.22
2019-02-28T01:31:31.656Z,22.22
2019-02-28T01:32:33.701Z,22.23
2019-02-28T01:33:36.544Z,22.23
2019-02-28T01:34:38.198Z,22.23
2019-02-28T01:35:41.526Z,22.24
2019-02-28T01:36:45.963Z,22.23
2019-02-28T01:37:47.269Z,22.21
2019-02-28T01:38:49.156Z,22.22
2019-02-28T01:39:51.135Z,22.22
2019-02-28T01:40:53.338Z,22.20
2019-02-28T01:41:55.548Z,22.22
2019-02-28T01:42:57.534Z,22.21
2019-02-28T01:44:01.738Z,22.21
2019-02-28T01:45:07.072Z,22.20
2019-02-28T01:46:10.630Z,22.20
2019-02-28T01:47:12.699Z,22.21
2019-02-28T01:48:14.753Z,22.20
2019-02-28T01:49:16.695Z,22.19
2019-02-28T01:50:18.948Z,22.18
2019-02-28T01:51:21.002Z,22.19
2019-02-28T01:52:22.810Z,22.19
2019-02-28T01:53:24.665Z,22.19
2019-02-28T01:54:27.751Z,22.16
2019-02-28T01:55:31.736Z,22.16
2019-02-28T01:56:34.316Z,22.13
2019-02-28T01:57:42.357Z,22.13
2019-02-28T01:58:41.545Z,22.11
2019-02-28T01:59:43.507Z,22.10
2019-02-28T02:00:45.194Z,22.09
2019-02-28T02:01:47.205Z,22.07
2019-02-28T02:02:49.049Z,22.07
2019-02-28T02:03:51.101Z,22.07
2019-02-28T02:04:53.045Z,22.06
2019-02-28T02:05:55.053Z,22.08
2019-02-28T02:06:59.924Z,22.07
2019-02-28T02:08:06.523Z,22.08
2019-02-28T02:09:08.185Z,22.08
2019-02-28T02:10:21.230Z,22.08
2019-02-28T02:11:21.763Z,22.07
2019-02-28T02:12:23.615Z,22.06
2019-02-28T02:13:27.947Z,22.05
2019-02-28T02:14:30.254Z,22.03
2019-02-28T02:15:32.346Z,22.06
2019-02-28T02:16:35.510Z,22.04
2019-02-28T02:17:37.382Z,22.04
2019-02-28T02:18:43.023Z,22.03
2019-02-28T02:19:42.944Z,22.04
2019-02-28T02:20:44.684Z,22.04
2019-02-28T02:21:46.530Z,22.05
2019-02-28T02:22:50.530Z,22.03
2019-02-28T02:23:52.983Z,22.05
2019-02-28T02:24:55.568Z,22.05
2019-02-28T02:25:57.660Z,22.03
2019-02-28T02:26:59.503Z,22.03
2019-02-28T02:28:01.176Z,22.05
2019-02-28T02:29:03.391Z,22.08
2019-02-28T02:30:19.179Z,22.02
2019-02-28T02:31:27.196Z,22.01
2019-02-28T02:32:25.981Z,22.01
2019-02-28T02:33:28.051Z,21.98
2019-02-28T02:34:31.312Z,21.95
2019-02-28T02:35:33.190Z,21.95
2019-02-28T02:36:35.251Z,21.96
2019-02-28T02:37:37.083Z,21.95
2019-02-28T02:38:41.563Z,21.95
2019-02-28T02:39:42.629Z,21.96
2019-02-28T02:40:44.585Z,21.96
2019-02-28T02:41:46.589Z,21.96
2019-02-28T02:42:49.883Z,21.96
2019-02-28T02:43:55.035Z,21.98
2019-02-28T02:44:56.099Z,21.99
2019-02-28T02:45:57.792Z,22.00
2019-02-28T02:46:59.714Z,22.02
2019-02-28T02:48:05.298Z,22.00
2019-02-28T02:49:05.845Z,22.01
2019-02-28T02:50:14.039Z,22.02
2019-02-28T02:51:15.973Z,22.03
2019-02-28T02:52:17.989Z,22.05
2019-02-28T02:53:19.827Z,22.04
2019-02-28T02:54:21.943Z,22.05
2019-02-28T02:55:27.725Z,22.07
2019-02-28T02:56:27.672Z,22.08
2019-02-28T02:57:29.757Z,22.09
2019-02-28T02:58:31.640Z,22.09
2019-02-28T02:59:39.047Z,22.09
2019-02-28T03:00:37.657Z,22.11
2019-02-28T03:01:39.621Z,22.12
2019-02-28T03:02:42.794Z,22.14
2019-02-28T03:03:44.627Z,22.13
2019-02-28T03:04:46.863Z,22.15
2019-02-28T03:05:48.959Z,22.16
2019-02-28T03:06:51.668Z,22.16
2019-02-28T03:07:59.439Z,22.16
2019-02-28T03:08:57.464Z,22.18
2019-02-28T03:09:59.268Z,22.19
2019-02-28T03:11:01.464Z,22.19
2019-02-28T03:12:04.984Z,22.20
2019-02-28T03:13:07.321Z,22.19
2019-02-28T03:14:09.480Z,22.23
2019-02-28T03:15:15.669Z,22.22
2019-02-28T03:16:18.832Z,22.23
2019-02-28T03:17:20.828Z,22.23
2019-02-28T03:18:22.738Z,22.24
2019-02-28T03:19:24.419Z,22.23
2019-02-28T03:20:26.275Z,22.23
2019-02-28T03:21:28.281Z,22.24
2019-02-28T03:22:30.474Z,22.25
2019-02-28T03:23:37.857Z,22.25
2019-02-28T03:24:36.380Z,22.24
2019-02-28T03:25:38.171Z,22.24
2019-02-28T03:26:41.887Z,22.25
2019-02-28T03:27:44.121Z,22.25
2019-02-28T03:28:47.140Z,22.27
2019-02-28T03:29:48.984Z,22.26
2019-02-28T03:30:50.963Z,22.25
2019-02-28T03:31:56.783Z,22.22
2019-02-28T03:32:56.753Z,22.23
2019-02-28T03:34:10.491Z,22.24
2019-02-28T03:35:04.727Z,22.24
2019-02-28T03:36:06.585Z,22.24
2019-02-28T03:37:08.284Z,22.25
2019-02-28T03:38:12.482Z,22.23
2019-02-28T03:39:14.049Z,22.24
2019-02-28T03:40:16.180Z,22.24
2019-02-28T03:41:18.413Z,22.23
2019-02-28T03:42:20.405Z,22.20
2019-02-28T03:43:22.338Z,22.24
2019-02-28T03:44:24.308Z,22.23
2019-02-28T03:45:33.660Z,22.23
2019-02-28T03:46:29.947Z,22.23
2019-02-28T03:47:32.145Z,22.22
2019-02-28T03:48:35.960Z,22.24
2019-02-28T03:49:37.997Z,22.21
2019-02-28T03:50:39.848Z,22.23
2019-02-28T03:51:41.581Z,22.24
2019-02-28T03:52:44.890Z,22.24
2019-02-28T03:53:46.926Z,22.23
2019-02-28T03:54:48.796Z,22.26
2019-02-28T03:55:50.969Z,22.24
2019-02-28T03:56:53.450Z,22.24
2019-02-28T03:57:55.681Z,22.24
2019-02-28T03:58:58.229Z,22.25
2019-02-28T04:00:00.474Z,22.25
2019-02-28T04:01:08.927Z,22.25
2019-02-28T04:02:06.468Z,22.26
2019-02-28T04:03:08.208Z,22.28
2019-02-28T04:04:12.210Z,22.28
2019-02-28T04:05:14.053Z,22.26
2019-02-28T04:06:15.994Z,22.28
2019-02-28T04:07:17.740Z,22.29
2019-02-28T04:08:19.982Z,22.29
2019-02-28T04:09:21.736Z,22.30
2019-02-28T04:10:23.583Z,22.28
2019-02-28T04:11:30.784Z,22.30
2019-02-28T04:12:29.411Z,22.30
2019-02-28T04:13:31.370Z,22.31
2019-02-28T04:14:34.345Z,22.31
2019-02-28T04:15:36.942Z,22.30
2019-02-28T04:16:38.930Z,22.30
2019-02-28T04:17:41.005Z,22.30
2019-02-28T04:18:46.148Z,22.31
2019-02-28T04:19:47.021Z,22.32
2019-02-28T04:20:49.157Z,22.32
2019-02-28T04:21:50.837Z,22.30
2019-02-28T04:22:58.722Z,22.32
2019-02-28T04:23:57.246Z,22.33
2019-02-28T04:24:58.921Z,22.33
2019-02-28T04:26:00.833Z,22.33
2019-02-28T04:27:06.928Z,22.35
2019-02-28T04:28:06.696Z,22.35
2019-02-28T04:29:08.857Z,22.35
2019-02-28T04:30:15.300Z,22.35
2019-02-28T04:31:20.084Z,22.36
2019-02-28T04:32:26.395Z,22.35
2019-02-28T04:33:25.095Z,22.36
2019-02-28T04:34:27.076Z,22.36
2019-02-28T04:35:29.087Z,22.35
2019-02-28T04:36:35.488Z,22.36
2019-02-28T04:37:34.930Z,22.36
2019-02-28T04:38:37.032Z,22.37
2019-02-28T04:39:39.178Z,22.35
2019-02-28T04:40:41.255Z,22.38
2019-02-28T04:41:43.000Z,22.37
2019-02-28T04:42:44.962Z,22.37
2019-02-28T04:43:46.956Z,22.38
2019-02-28T04:44:49.191Z,22.36
2019-02-28T04:45:53.091Z,22.38
2019-02-28T04:46:54.981Z,22.39
2019-02-28T04:47:56.905Z,22.38
2019-02-28T04:48:58.582Z,22.38
2019-02-28T04:50:00.638Z,22.39
2019-02-28T04:51:05.779Z,22.37
2019-02-28T04:52:06.359Z,22.38
2019-02-28T04:53:08.338Z,22.38
2019-02-28T04:54:10.214Z,22.39
2019-02-28T04:55:12.321Z,22.40
2019-02-28T04:56:14.180Z,22.38
2019-02-28T04:57:17.397Z,22.36
2019-02-28T04:58:22.391Z,22.37
2019-02-28T04:59:24.123Z,22.37
2019-02-28T05:00:25.997Z,22.36
2019-02-28T05:01:27.944Z,22.38
2019-02-28T05:02:29.989Z,22.39
2019-02-28T05:03:32.266Z,22.38
2019-02-28T05:04:36.081Z,22.38
2019-02-28T05:05:37.906Z,22.38
2019-02-28T05:06:40.348Z,22.39
2019-02-28T05:07:42.472Z,22.39
2019-02-28T05:08:44.408Z,22.39
2019-02-28T05:09:48.103Z,22.39
2019-02-28T05:10:50.131Z,22.38
2019-02-28T05:11:52.100Z,22.40
2019-02-28T05:12:54.247Z,22.39
2019-02-28T05:13:56.335Z,22.39
2019-02-28T05:15:02.190Z,22.38
2019-02-28T05:16:02.423Z,22.40
2019-02-28T05:17:04.269Z,22.40
2019-02-28T05:18:06.377Z,22.40
2019-02-28T05:19:08.199Z,22.38
2019-02-28T05:20:12.161Z,22.38
2019-02-28T05:21:16.522Z,22.37
2019-02-28T05:22:18.004Z,22.37
2019-02-28T05:23:19.985Z,22.38
2019-02-28T05:24:21.623Z,22.39
2019-02-28T05:25:23.304Z,22.38
2019-02-28T05:26:27.008Z,22.40
2019-02-28T05:27:34.859Z,22.38
2019-02-28T05:28:33.081Z,22.39
2019-02-28T05:29:35.074Z,22.38
2019-02-28T05:30:36.999Z,22.35
2019-02-28T05:31:38.760Z,22.37
2019-02-28T05:32:40.643Z,22.38
2019-02-28T05:33:42.923Z,22.39
2019-02-28T05:34:47.412Z,22.36
2019-02-28T05:35:48.740Z,22.36
2019-02-28T05:36:50.607Z,22.36
2019-02-28T05:37:52.614Z,22.36
2019-02-28T05:38:56.697Z,22.36
2019-02-28T05:39:58.091Z,22.36
2019-02-28T05:41:00.326Z,22.36
2019-02-28T05:42:02.198Z,22.37
2019-02-28T05:43:03.865Z,22.35
2019-02-28T05:44:06.245Z,22.36
2019-02-28T05:45:11.324Z,22.38
2019-02-28T05:46:14.629Z,22.36
2019-02-28T05:47:16.720Z,22.37
2019-02-28T05:48:18.636Z,22.38
2019-02-28T05:49:20.739Z,22.40
2019-02-28T05:50:22.800Z,22.40
2019-02-28T05:51:25.746Z,22.39
2019-02-28T05:52:30.514Z,22.38
2019-02-28T05:53:31.631Z,22.38
2019-02-28T05:54:33.294Z,22.38
2019-02-28T05:55:35.168Z,22.38
2019-02-28T05:56:37.097Z,22.37
2019-02-28T05:57:42.894Z,22.37
2019-02-28T05:58:42.948Z,22.38
2019-02-28T05:59:44.914Z,22.39
2019-02-28T06:00:46.590Z,22.40
2019-02-28T06:01:48.575Z,22.39
2019-02-28T06:02:50.755Z,22.38
2019-02-28T06:03:52.638Z,22.39
2019-02-28T06:04:54.623Z,22.40
2019-02-28T06:05:56.556Z,22.41
2019-02-28T06:06:58.663Z,22.41
2019-02-28T06:08:03.630Z,22.43
2019-02-28T06:09:04.893Z,22.43
2019-02-28T06:10:10.769Z,22.43
2019-02-28T06:11:12.627Z,22.42
2019-02-28T06:12:14.681Z,22.44
2019-02-28T06:13:18.266Z,22.44
2019-02-28T06:14:20.184Z,22.44
2019-02-28T06:15:21.880Z,22.44
2019-02-28T06:16:23.865Z,22.44
2019-02-28T06:17:25.735Z,22.45
2019-02-28T06:18:32.653Z,22.46
2019-02-28T06:19:31.887Z,22.47
2019-02-28T06:20:33.891Z,22.48
2019-02-28T06:21:35.747Z,22.48
2019-02-28T06:22:37.691Z,22.47
2019-02-28T06:23:40.796Z,22.47
2019-02-28T06:24:44.840Z,22.48
2019-02-28T06:25:47.241Z,22.48
2019-02-28T06:26:49.131Z,22.48
2019-02-28T06:27:50.939Z,22.47
2019-02-28T06:28:52.733Z,22.48
2019-02-28T06:29:54.831Z,22.49
2019-02-28T06:31:00.192Z,22.49
2019-02-28T06:32:02.599Z,22.48
2019-02-28T06:33:05.047Z,22.49
2019-02-28T06:34:08.555Z,22.51
2019-02-28T06:35:15.989Z,22.50
2019-02-28T06:36:14.986Z,22.51
2019-02-28T06:37:17.037Z,22.51
2019-02-28T06:38:19.251Z,22.50
2019-02-28T06:39:21.881Z,22.51
2019-02-28T06:40:24.108Z,22.52
2019-02-28T06:41:26.375Z,22.52
2019-02-28T06:42:28.364Z,22.54
2019-02-28T06:43:30.540Z,22.55
2019-02-28T06:44:32.782Z,22.55
2019-02-28T06:45:37.593Z,22.55
2019-02-28T06:46:39.853Z,22.55
2019-02-28T06:47:45.382Z,22.56
2019-02-28T06:48:46.053Z,22.56
2019-02-28T06:49:48.114Z,22.58
2019-02-28T06:50:50.010Z,22.58
2019-02-28T06:51:52.028Z,22.57
2019-02-28T06:52:56.454Z,22.57
2019-02-28T06:53:57.898Z,22.59
2019-02-28T06:54:59.643Z,22.60
2019-02-28T06:56:01.728Z,22.60
2019-02-28T06:57:03.743Z,22.61
2019-02-28T06:58:06.409Z,22.62
2019-02-28T06:59:08.518Z,22.61
2019-02-28T07:00:14.221Z,22.62
2019-02-28T07:01:16.263Z,22.61
2019-02-28T07:02:18.228Z,22.63
2019-02-28T07:03:20.343Z,22.64
2019-02-28T07:04:22.320Z,22.63
2019-02-28T07:05:25.967Z,22.63
2019-02-28T07:06:27.993Z,22.65
2019-02-28T07:07:29.841Z,22.66
2019-02-28T07:08:31.809Z,22.65
2019-02-28T07:09:36.378Z,22.66
2019-02-28T07:10:37.495Z,22.66
2019-02-28T07:11:39.350Z,22.67
2019-02-28T07:12:41.391Z,22.68
2019-02-28T07:13:43.276Z,22.67
2019-02-28T07:14:49.212Z,22.68
2019-02-28T07:15:49.099Z,22.68
2019-02-28T07:16:51.196Z,22.70
2019-02-28T07:17:53.043Z,22.70
2019-02-28T07:18:55.038Z,22.70
2019-02-28T07:20:01.319Z,22.70
2019-02-28T07:21:00.989Z,22.72
2019-02-28T07:22:03.017Z,22.71
2019-02-28T07:23:05.046Z,22.71
2019-02-28T07:24:06.946Z,22.72
2019-02-28T07:25:12.782Z,22.73
2019-02-28T07:26:14.320Z,22.73
2019-02-28T07:27:16.471Z,22.75
2019-02-28T07:28:18.698Z,22.74
2019-02-28T07:29:20.591Z,22.71
2019-02-28T07:30:22.570Z,22.73
2019-02-28T07:31:25.426Z,22.70
2019-02-28T07:32:27.374Z,22.70
2019-02-28T07:33:29.251Z,22.67
2019-02-28T07:34:31.113Z,22.69
2019-02-28T07:35:36.092Z,22.72
2019-02-28T07:36:36.840Z,22.68
2019-02-28T07:37:40.843Z,22.66
2019-02-28T07:38:42.718Z,22.66
2019-02-28T07:39:44.599Z,22.66
2019-02-28T07:40:49.437Z,22.66
2019-02-28T07:41:52.154Z,22.67
2019-02-28T07:42:54.310Z,22.67
2019-02-28T07:43:56.172Z,22.67
2019-02-28T07:44:58.979Z,22.67
2019-02-28T07:46:01.469Z,22.69
2019-02-28T07:47:04.140Z,22.70
2019-02-28T07:48:05.956Z,22.76
2019-02-28T07:49:07.600Z,22.69
2019-02-28T07:50:14.327Z,22.69
2019-02-28T07:51:18.343Z,22.71
2019-02-28T07:52:20.501Z,22.68
2019-02-28T07:53:22.713Z,22.69
2019-02-28T07:54:24.599Z,22.69
2019-02-28T07:55:27.353Z,22.68
2019-02-28T07:56:30.715Z,22.71
2019-02-28T07:57:32.729Z,22.70
2019-02-28T07:58:34.729Z,22.70
2019-02-28T07:59:40.678Z,22.70
2019-02-28T08:00:42.018Z,22.72
2019-02-28T08:01:43.871Z,22.73
2019-02-28T08:02:47.167Z,22.74
2019-02-28T08:03:48.846Z,22.76
2019-02-28T08:04:54.276Z,22.77
2019-02-28T08:05:54.625Z,22.79
2019-02-28T08:06:56.446Z,22.79
2019-02-28T08:07:58.490Z,22.81
2019-02-28T08:09:01.736Z,22.80
2019-02-28T08:10:12.783Z,22.82
2019-02-28T08:11:16.281Z,22.82
2019-02-28T08:12:18.151Z,22.83
2019-02-28T08:13:20.247Z,22.85
2019-02-28T08:14:22.354Z,22.85
2019-02-28T08:15:26.942Z,22.87
2019-02-28T08:16:30.699Z,22.88
2019-02-28T08:17:32.633Z,22.89
2019-02-28T08:18:34.293Z,22.90
2019-02-28T08:19:36.176Z,22.91
2019-02-28T08:20:38.557Z,22.92
2019-02-28T08:21:46.974Z,22.93
2019-02-28T08:22:44.883Z,22.95
2019-02-28T08:23:47.820Z,22.96
2019-02-28T08:24:49.506Z,22.95
2019-02-28T08:25:51.536Z,23.00
2019-02-28T08:26:54.304Z,22.97
2019-02-28T08:27:59.913Z,23.00
2019-02-28T08:29:01.622Z,22.95
2019-02-28T08:30:16.339Z,22.94
2019-02-28T08:31:18.374Z,22.98
2019-02-28T08:32:20.220Z,23.06
2019-02-28T08:33:22.221Z,22.93
2019-02-28T08:34:24.996Z,22.84
2019-02-28T08:35:27.047Z,22.97
2019-02-28T08:36:28.772Z,22.86
2019-02-28T08:37:30.532Z,22.84
2019-02-28T08:38:34.315Z,22.82
2019-02-28T08:39:36.129Z,22.89
2019-02-28T08:40:39.215Z,22.88
2019-02-28T08:41:41.291Z,22.82
2019-02-28T08:42:44.674Z,22.96
2019-02-28T08:43:47.936Z,22.94
2019-02-28T08:44:50.556Z,22.84
2019-02-28T08:45:52.371Z,22.83
2019-02-28T08:46:54.224Z,22.81
2019-02-28T08:47:56.970Z,22.84
2019-02-28T08:48:59.069Z,22.90
2019-02-28T08:50:01.351Z,23.12
2019-02-28T08:51:03.833Z,23.06
2019-02-28T08:52:06.644Z,23.05
2019-02-28T08:53:08.891Z,22.92
2019-02-28T08:54:10.897Z,23.00
2019-02-28T08:55:14.580Z,22.76
2019-02-28T08:56:16.677Z,22.69
2019-02-28T08:57:18.702Z,22.55
2019-02-28T08:58:20.697Z,22.48
2019-02-28T08:59:22.962Z,22.45
2019-02-28T09:00:31.358Z,22.03
2019-02-28T09:01:30.950Z,22.16
2019-02-28T09:02:33.051Z,21.91
2019-02-28T09:03:36.534Z,22.00
2019-02-28T09:04:41.487Z,21.77
2019-02-28T09:05:43.718Z,21.79
2019-02-28T09:06:45.990Z,21.91
2019-02-28T09:07:51.292Z,22.12
2019-02-28T09:08:51.991Z,21.82
2019-02-28T09:09:53.962Z,21.88
2019-02-28T09:10:56.143Z,21.71
2019-02-28T09:11:58.907Z,21.84
2019-02-28T09:13:00.690Z,21.86
2019-02-28T09:14:04.002Z,21.86
2019-02-28T09:15:10.010Z,21.61
2019-02-28T09:16:12.039Z,21.66
2019-02-28T09:17:15.554Z,21.57
2019-02-28T09:18:17.994Z,21.52
2019-02-28T09:19:19.670Z,21.43
2019-02-28T09:20:21.618Z,21.53
2019-02-28T09:21:24.823Z,21.35
2019-02-28T09:22:27.488Z,21.18
2019-02-28T09:23:30.180Z,21.17
2019-02-28T09:24:32.180Z,20.74
2019-02-28T09:25:34.574Z,20.98
2019-02-28T09:26:36.544Z,21.04
2019-02-28T09:27:38.888Z,21.16
2019-02-28T09:28:44.384Z,21.01
2019-02-28T09:29:46.417Z,20.81
2019-02-28T09:30:57.174Z,20.83
2019-02-28T09:31:59.327Z,20.90
2019-02-28T09:33:01.391Z,21.15
2019-02-28T09:34:03.391Z,21.16
2019-02-28T09:35:11.942Z,20.85
2019-02-28T09:36:10.377Z,20.93
2019-02-28T09:37:12.007Z,20.62
2019-02-28T09:38:13.951Z,20.77
2019-02-28T09:39:16.402Z,20.74
2019-02-28T09:40:19.993Z,20.77
2019-02-28T09:41:22.084Z,20.79
2019-02-28T09:42:24.034Z,20.80
2019-02-28T09:43:26.084Z,20.70
2019-02-28T09:44:31.435Z,21.00
2019-02-28T09:45:33.242Z,20.90
2019-02-28T09:46:35.144Z,20.96
2019-02-28T09:47:37.017Z,20.85
2019-02-28T09:48:39.181Z,20.54
2019-02-28T09:49:40.917Z,20.49
2019-02-28T09:50:42.987Z,20.54
2019-02-28T09:51:46.085Z,20.45
2019-02-28T09:52:48.217Z,20.42
2019-02-28T09:53:50.894Z,20.41
2019-02-28T09:54:52.795Z,20.49
2019-02-28T09:55:54.681Z,20.44
2019-02-28T09:56:56.666Z,20.47
2019-02-28T09:57:58.614Z,20.47
2019-02-28T09:59:03.116Z,20.32
2019-02-28T10:00:18.940Z,20.27
2019-02-28T10:01:21.285Z,20.26
2019-02-28T10:02:24.822Z,20.27
2019-02-28T10:03:26.608Z,20.08
2019-02-28T10:04:30.473Z,20.09
2019-02-28T10:05:32.430Z,19.99
2019-02-28T10:06:34.628Z,19.85
2019-02-28T10:07:36.587Z,19.78
2019-02-28T10:08:38.864Z,19.81
2019-02-28T10:09:44.270Z,19.81
2019-02-28T10:10:46.423Z,19.93
2019-02-28T10:11:48.348Z,19.97
2019-02-28T10:12:50.280Z,19.82
2019-02-28T10:13:53.098Z,19.86
2019-02-28T10:14:55.962Z,19.93
2019-02-28T10:15:57.684Z,19.99
2019-02-28T10:17:00.120Z,19.74
2019-02-28T10:18:04.240Z,19.80
2019-02-28T10:19:07.161Z,19.73
2019-02-28T10:20:20.004Z,19.96
2019-02-28T10:21:22.263Z,19.99
2019-02-28T10:22:23.931Z,19.89
2019-02-28T10:23:25.941Z,19.81
2019-02-28T10:24:28.356Z,19.67
2019-02-28T10:25:30.651Z,19.42
2019-02-28T10:26:32.538Z,19.55
2019-02-28T10:27:34.283Z,19.66
2019-02-28T10:28:36.395Z,19.63
2019-02-28T10:29:41.800Z,19.73
2019-02-28T10:30:42.200Z,19.74
2019-02-28T10:31:47.309Z,19.71
2019-02-28T10:32:49.831Z,19.85
2019-02-28T10:33:52.544Z,19.95
2019-02-28T10:34:55.077Z,20.02
2019-02-28T10:35:57.159Z,19.89
2019-02-28T10:36:59.045Z,19.97
2019-02-28T10:38:01.584Z,20.01
2019-02-28T10:39:05.834Z,19.92
2019-02-28T10:40:24.966Z,19.85
2019-02-28T10:41:27.978Z,19.91
2019-02-28T10:42:30.968Z,19.86
2019-02-28T10:43:32.910Z,19.73
2019-02-28T10:44:34.859Z,19.72
2019-02-28T10:45:40.897Z,19.65
2019-02-28T10:46:40.945Z,19.76
2019-02-28T10:47:42.994Z,19.78
2019-02-28T10:48:50.833Z,19.72
2019-02-28T10:49:49.900Z,19.50
2019-02-28T10:50:52.990Z,19.71
2019-02-28T10:51:55.091Z,19.70
2019-02-28T10:52:57.176Z,19.70
2019-02-28T10:53:59.146Z,19.66
2019-02-28T10:55:01.100Z,19.70
2019-02-28T10:56:03.509Z,19.74
2019-02-28T10:57:07.061Z,19.77
2019-02-28T10:58:09.128Z,19.94
2019-02-28T10:59:11.080Z,19.91
2019-02-28T11:00:24.870Z,19.83
2019-02-28T11:01:26.904Z,19.89
2019-02-28T11:02:29.080Z,19.87
2019-02-28T11:03:32.421Z,19.78
2019-02-28T11:04:35.352Z,19.72
2019-02-28T11:05:40.169Z,19.77
2019-02-28T11:06:42.056Z,19.76
2019-02-28T11:07:46.117Z,19.62
2019-02-28T11:08:48.285Z,19.69
2019-02-28T11:09:55.510Z,19.48
2019-02-28T11:10:56.716Z,19.50
2019-02-28T11:11:59.642Z,19.44
2019-02-28T11:13:02.240Z,19.38
2019-02-28T11:14:05.028Z,19.23
2019-02-28T11:15:10.437Z,19.12
2019-02-28T11:16:13.781Z,19.27
2019-02-28T11:17:15.842Z,19.25
2019-02-28T11:18:17.826Z,19.29
2019-02-28T11:19:19.747Z,19.24
2019-02-28T11:20:22.549Z,19.31
2019-02-28T11:21:26.173Z,19.27
2019-02-28T11:22:28.331Z,19.34
2019-02-28T11:23:30.397Z,19.44
2019-02-28T11:24:33.387Z,19.31
2019-02-28T11:25:35.702Z,19.34
2019-02-28T11:26:37.923Z,19.32
2019-02-28T11:27:40.773Z,19.36
2019-02-28T11:28:42.952Z,19.18
2019-02-28T11:29:44.945Z,19.26
2019-02-28T11:30:47.214Z,19.25
2019-02-28T11:31:50.586Z,19.13
2019-02-28T11:32:53.485Z,19.13
2019-02-28T11:33:55.335Z,19.25
2019-02-28T11:34:57.556Z,19.37
2019-02-28T11:36:00.124Z,19.41
2019-02-28T11:37:05.455Z,19.27
2019-02-28T11:38:08.632Z,19.27
2019-02-28T11:39:16.161Z,19.37
2019-02-28T11:40:21.252Z,19.45
2019-02-28T11:41:23.522Z,19.30
2019-02-28T11:42:28.997Z,19.33
2019-02-28T11:43:37.396Z,19.34
2019-02-28T11:44:38.228Z,19.38
2019-02-28T11:45:44.089Z,19.13
2019-02-28T11:46:46.296Z,19.26
2019-02-28T11:47:50.650Z,19.35
2019-02-28T11:48:54.142Z,19.45
2019-02-28T11:49:56.265Z,19.50
2019-02-28T11:50:58.223Z,19.58
2019-02-28T11:51:59.948Z,19.52
2019-02-28T11:53:05.785Z,19.53
2019-02-28T11:54:05.952Z,19.49
2019-02-28T11:55:12.969Z,19.51
2019-02-28T11:56:15.479Z,19.54
2019-02-28T11:57:17.284Z,19.56
2019-02-28T11:58:22.489Z,19.52
2019-02-28T11:59:26.056Z,19.66
2019-02-28T12:00:37.532Z,19.48
2019-02-28T12:01:42.477Z,19.35
2019-02-28T12:02:43.466Z,19.52
2019-02-28T12:03:45.586Z,19.53
2019-02-28T12:04:47.556Z,19.47
2019-02-28T12:05:50.717Z,19.43
2019-02-28T12:06:53.512Z,19.46
2019-02-28T12:07:55.853Z,19.34
2019-02-28T12:08:58.913Z,19.43
2019-02-28T12:10:00.596Z,19.45
2019-02-28T12:11:04.915Z,19.45
2019-02-28T12:12:07.402Z,19.48
2019-02-28T12:13:10.623Z,19.30
2019-02-28T12:14:12.765Z,19.28
2019-02-28T12:15:33.031Z,19.45
2019-02-28T12:16:35.298Z,19.47
2019-02-28T12:17:37.451Z,19.38
2019-02-28T12:18:40.859Z,19.43
2019-02-28T12:19:42.899Z,19.45
2019-02-28T12:20:45.103Z,19.26
2019-02-28T12:21:46.797Z,19.25
2019-02-28T12:22:49.981Z,19.20
2019-02-28T12:23:54.342Z,19.33
2019-02-28T12:24:55.727Z,19.22
2019-02-28T12:25:58.078Z,19.26
2019-02-28T12:26:59.947Z,19.33
2019-02-28T12:28:02.791Z,19.51
2019-02-28T12:29:05.627Z,19.37
2019-02-28T12:30:12.628Z,19.47
2019-02-28T12:31:14.821Z,19.32
2019-02-28T12:32:17.658Z,19.31
2019-02-28T12:33:23.255Z,19.38
2019-02-28T12:34:24.632Z,19.49
2019-02-28T12:35:26.819Z,19.40
2019-02-28T12:36:28.857Z,19.32
2019-02-28T12:37:30.756Z,19.41
2019-02-28T12:38:32.863Z,19.52
2019-02-28T12:39:36.371Z,19.59
2019-02-28T12:40:42.598Z,19.58
2019-02-28T12:41:44.792Z,19.49
2019-02-28T12:42:46.559Z,19.44
2019-02-28T12:43:48.682Z,19.42
2019-02-28T12:44:50.680Z,19.33
2019-02-28T12:45:53.583Z,19.26
2019-02-28T12:46:56.391Z,19.21
2019-02-28T12:47:58.928Z,19.16
2019-02-28T12:49:00.804Z,19.13
2019-02-28T12:50:07.579Z,19.26
2019-02-28T12:51:09.629Z,19.32
2019-02-28T12:52:14.599Z,19.16
2019-02-28T12:53:15.813Z,19.23
2019-02-28T12:54:17.842Z,19.22
2019-02-28T12:55:20.741Z,19.30
2019-02-28T12:56:22.598Z,19.33
2019-02-28T12:57:24.735Z,19.41
2019-02-28T12:58:36.163Z,19.39
2019-02-28T12:59:30.785Z,19.47
2019-02-28T13:00:37.661Z,19.42
2019-02-28T13:01:39.664Z,19.47
2019-02-28T13:02:43.543Z,19.64
2019-02-28T13:03:45.840Z,19.49
2019-02-28T13:04:47.913Z,19.38
2019-02-28T13:05:50.086Z,19.53
2019-02-28T13:06:51.856Z,19.62
2019-02-28T13:07:54.933Z,19.62
2019-02-28T13:09:00.491Z,19.52
2019-02-28T13:10:06.928Z,19.57
2019-02-28T13:11:08.842Z,19.42
2019-02-28T13:12:12.134Z,19.57
2019-02-28T13:13:14.217Z,19.59
2019-02-28T13:14:16.252Z,19.51
2019-02-28T13:15:19.631Z,19.49
2019-02-28T13:16:21.553Z,19.56
2019-02-28T13:17:23.501Z,19.66
2019-02-28T13:18:25.749Z,19.74
2019-02-28T13:19:27.574Z,19.80
2019-02-28T13:20:36.574Z,19.78
2019-02-28T13:21:38.723Z,19.74
2019-02-28T13:22:41.446Z,19.64
2019-02-28T13:23:43.606Z,19.69
2019-02-28T13:24:46.433Z,19.76
2019-02-28T13:25:49.371Z,19.77
2019-02-28T13:26:51.329Z,19.65
2019-02-28T13:27:53.653Z,19.58
2019-02-28T13:28:57.466Z,19.51